Time;durP1;ratioP1;P1;durP2;ratioP2;P2;SDS_P1;SDS_P2;PMS_P1;PMS_P2;Temp;Humidity;BMP_temperature;BMP_pressure;BME280_temperature;BME280_humidity;BME280_pressure;Samples;Min_cycle;Max_cycle;Signal;HPM_P1;HPM_P2
2023/04/10 00:00:34;;;;;;;10.93;10.03;;;9.20;80.20;;;;;;5082439;28;21424;-82
2023/04/10 00:03:02;;;;;;;11.03;10.23;;;9.20;82.00;;;;;;5084857;28;20453;-81
2023/04/10 00:05:32;;;;;;;9.97;9.10;;;9.20;67.90;;;;;;5085922;28;20448;-82
2023/04/10 00:08:02;;;;;;;10.07;9.10;;;9.30;81.90;;;;;;5078653;28;20467;-82
2023/04/10 00:10:31;;;;;;;10.37;9.47;;;9.30;82.40;;;;;;5083963;28;20443;-81
2023/04/10 00:12:59;;;;;;;9.97;9.00;;;9.30;83.70;;;;;;5082229;28;20982;-81
2023/04/10 00:15:28;;;;;;;10.30;9.60;;;9.30;84.30;;;;;;5083150;28;20453;-80
2023/04/10 00:17:56;;;;;;;10.00;9.30;;;9.10;85.30;;;;;;5084572;28;20447;-82
2023/04/10 00:20:25;;;;;;;10.30;9.40;;;9.10;87.60;;;;;;5084734;28;21329;-81
2023/04/10 00:22:55;;;;;;;10.50;9.63;;;9.10;88.90;;;;;;5082187;28;20535;-82
2023/04/10 00:25:23;;;;;;;11.30;10.30;;;8.90;90.90;;;;;;5083872;28;20574;-81
2023/04/10 00:27:51;;;;;;;10.57;9.70;;;8.80;91.50;;;;;;5083888;28;20461;-78
2023/04/10 00:30:19;;;;;;;10.17;9.37;;;8.80;92.60;;;;;;5084687;28;20456;-82
2023/04/10 00:32:47;;;;;;;11.70;9.40;;;8.80;93.80;;;;;;5080745;28;20552;-82
2023/04/10 00:35:16;;;;;;;9.50;8.70;;;8.80;92.80;;;;;;5083779;28;20490;-81
2023/04/10 00:37:44;;;;;;;10.20;9.50;;;8.90;91.80;;;;;;5086464;28;20471;-81
2023/04/10 00:40:13;;;;;;;10.27;9.37;;;9.00;91.70;;;;;;5084510;28;20505;-79
2023/04/10 00:42:42;;;;;;;9.80;9.00;;;9.10;90.10;;;;;;5076790;28;20460;-81
2023/04/10 00:45:10;;;;;;;10.40;9.60;;;9.10;88.60;;;;;;5083115;28;21002;-81
2023/04/10 00:47:39;;;;;;;9.67;8.93;;;8.90;90.60;;;;;;5083792;28;20458;-79
2023/04/10 00:50:08;;;;;;;10.53;9.67;;;8.80;91.70;;;;;;5081824;28;20463;-81
2023/04/10 00:52:36;;;;;;;10.30;9.37;;;8.70;94.60;;;;;;5083746;28;20460;-79
2023/04/10 00:55:05;;;;;;;11.53;10.47;;;8.60;95.80;;;;;;5073850;28;20490;-81
2023/04/10 00:57:36;;;;;;;11.63;10.60;;;8.60;96.10;;;;;;5080025;28;20941;-78
2023/04/10 01:00:05;;;;;;;10.70;9.87;;;8.50;98.70;;;;;;5080879;28;21257;-78
2023/04/10 01:02:33;;;;;;;10.13;9.33;;;8.40;99.90;;;;;;5081307;28;20467;-78
2023/04/10 01:05:02;;;;;;;10.80;9.90;;;8.30;99.90;;;;;;5078383;28;20503;-79
2023/04/10 01:07:38;;;;;;;10.90;10.00;;;8.10;99.90;;;;;;5077071;28;20444;-78
2023/04/10 01:10:15;;;;;;;11.03;10.10;;;8.10;99.90;;;;;;5080376;28;20471;-77
2023/04/10 01:12:54;;;;;;;10.07;9.27;;;8.00;99.90;;;;;;5082396;28;20455;-79
2023/04/10 01:15:26;;;;;;;10.87;10.07;;;8.00;99.90;;;;;;5080963;28;20482;-80
2023/04/10 01:18:00;;;;;;;10.60;9.67;;;7.90;99.90;;;;;;5081630;28;21073;-79
2023/04/10 01:20:32;;;;;;;10.80;9.97;;;7.80;99.90;;;;;;5078107;28;20563;-78
2023/04/10 01:23:52;;;;;;;10.90;9.90;;;7.80;99.90;;;;;;5080578;28;20479;-79
2023/04/10 01:26:36;;;;;;;11.90;10.90;;;7.70;99.90;;;;;;4996445;28;20456;-79
2023/04/10 01:29:08;;;;;;;10.33;9.53;;;7.70;99.90;;;;;;4999130;28;20489;-78
2023/04/10 01:31:41;;;;;;;11.50;10.60;;;7.70;99.90;;;;;;5059869;28;20544;-78
2023/04/10 01:34:15;;;;;;;10.40;9.60;;;7.60;99.90;;;;;;5081816;28;20491;-78
2023/04/10 01:36:49;;;;;;;11.40;10.40;;;7.60;99.90;;;;;;5083309;28;20458;-78
2023/04/10 01:39:20;;;;;;;11.80;10.80;;;7.60;99.90;;;;;;5073654;28;20453;-78
2023/04/10 01:41:51;;;;;;;11.90;10.77;;;7.60;99.90;;;;;;5077295;28;20558;-79
2023/04/10 01:44:24;;;;;;;10.53;9.70;;;7.50;99.90;;;;;;5079085;28;20481;-79
2023/04/10 01:46:53;;;;;;;10.70;9.90;;;7.50;99.90;;;;;;5083726;28;20453;-78
2023/04/10 01:49:23;;;;;;;11.43;10.53;;;7.50;99.90;;;;;;5081440;28;20465;-80
2023/04/10 01:51:53;;;;;;;11.03;10.23;;;7.50;99.90;;;;;;5082648;28;20453;-76
2023/04/10 01:54:22;;;;;;;11.57;10.40;;;7.40;99.90;;;;;;5081354;28;20484;-77
2023/04/10 01:56:50;;;;;;;10.67;9.87;;;7.50;99.90;;;;;;5080150;28;20969;-78
2023/04/10 01:59:19;;;;;;;12.13;11.03;;;7.40;99.90;;;;;;5078679;28;20547;-75
2023/04/10 02:01:48;;;;;;;11.40;10.30;;;7.40;99.90;;;;;;5080584;28;20487;-78
2023/04/10 02:04:16;;;;;;;11.57;10.47;;;7.30;99.90;;;;;;5076158;28;21336;-77
2023/04/10 02:06:51;;;;;;;11.10;10.20;;;7.30;99.90;;;;;;5082369;28;20443;-79
2023/04/10 02:09:25;;;;;;;10.27;9.53;;;7.20;99.90;;;;;;5085094;28;20506;-79
2023/04/10 02:11:58;;;;;;;11.20;10.30;;;7.20;99.90;;;;;;5082816;28;20528;-79
2023/04/10 02:14:28;;;;;;;11.30;10.30;;;7.20;99.90;;;;;;5082982;28;20479;-78
2023/04/10 02:16:59;;;;;;;10.73;9.73;;;7.20;99.90;;;;;;5085379;28;20456;-78
2023/04/10 02:19:28;;;;;;;10.67;9.73;;;7.20;99.90;;;;;;5074632;28;20447;-78
2023/04/10 02:21:57;;;;;;;11.30;10.23;;;7.20;99.90;;;;;;5074645;28;20567;-79
2023/04/10 02:24:26;;;;;;;11.07;10.17;;;7.20;99.90;;;;;;5081757;28;20447;-78
2023/04/10 02:26:55;;;;;;;11.50;10.47;;;7.10;99.90;;;;;;5080730;28;20539;-79
2023/04/10 02:29:23;;;;;;;11.97;11.00;;;7.00;99.90;;;;;;5079218;28;20471;-79
2023/04/10 02:31:51;;;;;;;11.13;10.23;;;6.90;99.90;;;;;;5078044;28;20496;-80
2023/04/10 02:34:20;;;;;;;11.33;10.30;;;6.80;99.90;;;;;;5081465;28;20475;-79
2023/04/10 02:36:48;;;;;;;11.53;10.57;;;6.80;99.90;;;;;;5082348;28;20450;-79
2023/04/10 02:39:17;;;;;;;11.90;10.43;;;6.90;99.90;;;;;;5079015;28;20986;-78
2023/04/10 02:41:45;;;;;;;11.87;10.87;;;6.80;99.90;;;;;;5080023;28;20475;-79
2023/04/10 02:44:13;;;;;;;11.13;10.23;;;6.90;99.90;;;;;;5078130;28;20481;-78
2023/04/10 02:46:41;;;;;;;11.80;10.80;;;6.80;99.90;;;;;;5080229;28;20459;-78
2023/04/10 02:49:10;;;;;;;11.57;10.47;;;6.80;99.90;;;;;;5078992;28;20454;-77
2023/04/10 02:51:39;;;;;;;10.60;9.70;;;6.80;99.90;;;;;;5075632;28;20543;-79
2023/04/10 02:54:07;;;;;;;10.50;9.63;;;6.80;99.90;;;;;;5074038;28;20469;-79
2023/04/10 02:56:35;;;;;;;11.50;10.50;;;6.80;99.90;;;;;;5074080;28;20460;-78
2023/04/10 02:59:03;;;;;;;10.23;9.33;;;6.80;99.90;;;;;;5081911;28;20447;-79
2023/04/10 03:01:32;;;;;;;11.03;10.03;;;6.80;99.90;;;;;;5067871;28;20442;-79
2023/04/10 03:04:01;;;;;;;10.90;10.00;;;6.80;99.90;;;;;;5076451;28;21279;-79
2023/04/10 03:06:30;;;;;;;10.13;9.23;;;6.70;99.90;;;;;;5077496;28;20528;-78
2023/04/10 03:08:59;;;;;;;11.00;10.13;;;6.70;99.90;;;;;;5080460;28;21059;-79
2023/04/10 03:11:27;;;;;;;10.87;9.90;;;6.70;99.90;;;;;;5078349;28;20442;-80
2023/04/10 03:13:57;;;;;;;12.20;11.00;;;6.60;99.90;;;;;;5081838;28;20473;-79
2023/04/10 03:16:25;;;;;;;14.10;12.47;;;6.50;99.90;;;;;;5080301;28;20578;-80
2023/04/10 03:18:53;;;;;;;15.07;12.30;;;6.50;99.90;;;;;;5080859;28;20460;-80
2023/04/10 03:21:21;;;;;;;17.63;13.97;;;6.50;99.90;;;;;;5079373;28;20851;-79
2023/04/10 03:23:50;;;;;;;16.50;13.90;;;6.50;99.90;;;;;;5078613;28;20488;-79
2023/04/10 03:26:19;;;;;;;16.97;13.43;;;6.60;99.90;;;;;;5079501;28;20439;-78
2023/04/10 03:28:47;;;;;;;14.70;12.93;;;6.60;99.90;;;;;;5072851;28;20534;-76
2023/04/10 03:31:15;;;;;;;13.63;12.43;;;6.60;99.90;;;;;;5079344;28;20584;-78
2023/04/10 03:33:44;;;;;;;12.57;11.33;;;6.60;99.90;;;;;;5081154;28;21034;-78
2023/04/10 03:36:12;;;;;;;12.87;11.80;;;6.60;99.90;;;;;;5082105;28;20486;-80
2023/04/10 03:38:40;;;;;;;12.33;10.83;;;6.70;99.90;;;;;;5078362;28;20962;-79
2023/04/10 03:41:08;;;;;;;14.23;11.73;;;6.80;99.90;;;;;;5079930;28;20451;-79
2023/04/10 03:43:38;;;;;;;10.53;9.63;;;6.80;99.90;;;;;;5073453;28;21198;-80
2023/04/10 03:46:06;;;;;;;12.23;11.17;;;6.80;99.90;;;;;;5079264;28;20450;-78
2023/04/10 03:48:34;;;;;;;11.37;10.20;;;6.80;99.90;;;;;;5079428;28;20487;-78
2023/04/10 03:51:02;;;;;;;10.63;9.63;;;6.80;99.90;;;;;;5080327;28;20474;-80
2023/04/10 03:53:34;;;;;;;10.77;9.67;;;6.70;99.90;;;;;;5076059;28;20494;-77
2023/04/10 03:56:03;;;;;;;11.17;10.27;;;6.70;99.90;;;;;;5077570;28;20475;-80
2023/04/10 03:58:31;;;;;;;9.60;8.80;;;6.70;99.90;;;;;;5078870;28;20510;-82
2023/04/10 04:01:00;;;;;;;10.97;10.00;;;6.80;99.90;;;;;;5077733;28;20470;-81
2023/04/10 04:03:28;;;;;;;11.30;10.27;;;6.80;99.90;;;;;;5075984;28;20501;-79
2023/04/10 04:05:57;;;;;;;10.30;9.47;;;6.70;99.90;;;;;;5079394;28;20451;-80
2023/04/10 04:08:25;;;;;;;11.27;10.17;;;6.60;99.90;;;;;;5084212;28;20446;-79
2023/04/10 04:10:53;;;;;;;10.77;9.67;;;6.60;99.90;;;;;;5089432;28;20453;-78
2023/04/10 04:13:21;;;;;;;10.63;9.83;;;6.60;99.90;;;;;;5065548;28;20486;-79
2023/04/10 04:15:49;;;;;;;10.47;9.50;;;6.60;99.90;;;;;;5073964;28;20475;-79
2023/04/10 04:18:19;;;;;;;11.00;10.00;;;6.50;99.90;;;;;;5081766;28;20464;-79
2023/04/10 04:20:47;;;;;;;10.60;9.70;;;6.50;99.90;;;;;;5071872;28;20454;-78
2023/04/10 04:23:16;;;;;;;10.07;9.17;;;6.60;99.90;;;;;;5078145;28;20546;-76
2023/04/10 04:25:46;;;;;;;10.53;9.57;;;6.80;99.90;;;;;;5085168;28;20440;-79
2023/04/10 04:28:16;;;;;;;10.17;9.37;;;7.10;99.90;;;;;;5081846;28;20458;-79
2023/04/10 04:30:44;;;;;;;9.80;9.00;;;7.20;99.90;;;;;;5076244;28;20464;-79
2023/04/10 04:33:12;;;;;;;9.70;8.87;;;7.20;99.90;;;;;;5077782;28;21095;-78
2023/04/10 04:35:42;;;;;;;10.43;9.63;;;7.30;99.90;;;;;;5078902;28;20501;-79
2023/04/10 04:38:10;;;;;;;9.37;8.67;;;7.40;99.90;;;;;;5081142;28;20485;-80
2023/04/10 04:40:38;;;;;;;9.20;8.50;;;7.40;99.90;;;;;;5080612;28;20484;-78
2023/04/10 04:43:06;;;;;;;9.87;9.07;;;7.50;99.90;;;;;;5083510;28;20547;-78
2023/04/10 04:45:34;;;;;;;9.87;9.07;;;7.60;99.90;;;;;;5083753;28;20585;-78
2023/04/10 04:48:02;;;;;;;9.73;9.00;;;7.60;99.90;;;;;;5076858;28;20484;-81
2023/04/10 04:50:31;;;;;;;8.70;8.10;;;7.70;99.90;;;;;;5081302;28;20525;-80
2023/04/10 04:53:00;;;;;;;9.97;9.17;;;7.70;99.90;;;;;;5078999;28;20486;-79
2023/04/10 04:55:28;;;;;;;10.00;9.10;;;7.70;99.90;;;;;;5080734;28;20473;-78
2023/04/10 04:57:56;;;;;;;9.10;8.40;;;7.70;99.90;;;;;;5081128;28;21306;-78
2023/04/10 05:00:24;;;;;;;9.00;8.40;;;7.70;99.90;;;;;;5081138;28;20439;-79
2023/04/10 05:02:52;;;;;;;10.43;9.63;;;7.70;99.90;;;;;;5083771;28;20466;-80
2023/04/10 05:05:21;;;;;;;9.00;8.40;;;7.60;99.90;;;;;;5084756;28;20475;-79
2023/04/10 05:07:50;;;;;;;9.60;8.80;;;7.50;99.90;;;;;;5080900;28;20461;-79
2023/04/10 05:10:20;;;;;;;9.20;8.50;;;7.40;99.90;;;;;;5079151;28;20463;-78
2023/04/10 05:12:48;;;;;;;10.57;9.67;;;7.40;99.90;;;;;;5084915;28;20576;-78
2023/04/10 05:15:17;;;;;;;10.97;10.07;;;7.20;99.90;;;;;;5080651;28;20554;-80
2023/04/10 05:17:45;;;;;;;10.80;9.90;;;7.20;99.90;;;;;;5079997;28;20451;-79
2023/04/10 05:20:13;;;;;;;10.50;9.43;;;7.10;99.90;;;;;;5085037;28;20486;-80
2023/04/10 05:22:41;;;;;;;10.53;9.63;;;7.10;99.90;;;;;;5086726;28;20455;-79
2023/04/10 05:25:10;;;;;;;10.77;9.77;;;7.00;99.90;;;;;;5084054;28;20467;-77
2023/04/10 05:27:39;;;;;;;12.17;11.07;;;7.00;99.90;;;;;;5079992;28;20966;-79
2023/04/10 05:30:09;;;;;;;11.10;10.20;;;7.00;99.90;;;;;;5079822;28;20486;-79
2023/04/10 05:32:37;;;;;;;10.03;9.33;;;7.00;99.90;;;;;;5080001;28;20452;-77
2023/04/10 05:35:06;;;;;;;11.30;9.80;;;7.00;99.90;;;;;;5081440;28;20474;-78
2023/04/10 05:37:34;;;;;;;12.20;11.20;;;7.00;99.90;;;;;;5079106;28;20482;-77
2023/04/10 05:40:03;;;;;;;11.67;10.47;;;7.00;99.90;;;;;;5076856;28;20460;-80
2023/04/10 05:42:31;;;;;;;12.20;11.10;;;7.10;99.90;;;;;;5078538;28;20495;-81
2023/04/10 05:45:01;;;;;;;11.73;10.73;;;7.10;99.90;;;;;;5079305;28;20463;-79
2023/04/10 05:47:29;;;;;;;11.90;10.80;;;7.10;99.90;;;;;;5080315;28;20517;-79
2023/04/10 05:49:57;;;;;;;12.87;11.70;;;7.10;99.90;;;;;;5081693;28;20478;-79
2023/04/10 05:52:25;;;;;;;11.47;10.47;;;7.10;99.90;;;;;;5082979;28;20448;-81
2023/04/10 05:54:54;;;;;;;10.43;9.43;;;7.10;99.90;;;;;;5082300;28;20556;-78
2023/04/10 05:57:22;;;;;;;12.00;11.07;;;7.10;99.90;;;;;;5083113;28;20519;-78
2023/04/10 05:59:50;;;;;;;12.33;10.83;;;7.20;99.90;;;;;;5079268;28;20446;-79
2023/04/10 06:02:20;;;;;;;11.10;10.30;;;7.20;99.90;;;;;;5081545;28;20536;-80
2023/04/10 06:04:49;;;;;;;11.73;10.60;;;7.30;99.90;;;;;;5081042;28;20466;-77
2023/04/10 06:07:17;;;;;;;16.83;11.43;;;7.40;99.90;;;;;;5079688;28;20444;-75
2023/04/10 06:09:45;;;;;;;14.43;11.27;;;7.50;99.90;;;;;;5081254;28;20465;-78
2023/04/10 06:12:13;;;;;;;12.47;11.27;;;7.60;99.90;;;;;;5082946;28;20455;-80
2023/04/10 06:14:42;;;;;;;12.10;11.00;;;7.70;99.90;;;;;;5082400;28;20508;-83
2023/04/10 06:17:10;;;;;;;13.30;11.93;;;7.80;99.90;;;;;;5080047;28;20471;-80
2023/04/10 06:19:40;;;;;;;12.60;11.60;;;7.90;99.90;;;;;;5079839;28;20995;-81
2023/04/10 06:22:08;;;;;;;13.33;11.97;;;8.00;99.90;;;;;;5086170;28;20468;-80
2023/04/10 06:24:36;;;;;;;14.40;13.30;;;8.10;99.90;;;;;;5079997;28;20567;-83
2023/04/10 06:27:04;;;;;;;16.17;14.67;;;8.30;99.90;;;;;;5081576;28;20453;-79
2023/04/10 06:29:32;;;;;;;14.07;12.80;;;8.30;99.90;;;;;;5079354;28;20571;-82
2023/04/10 06:32:00;;;;;;;13.63;12.40;;;8.40;99.90;;;;;;5080319;28;20452;-80
2023/04/10 06:34:29;;;;;;;13.60;12.43;;;8.60;99.90;;;;;;5074434;28;20981;-79
2023/04/10 06:36:58;;;;;;;18.07;16.27;;;8.80;99.90;;;;;;5071793;28;20487;-81
2023/04/10 06:39:26;;;;;;;27.40;22.93;;;8.90;99.90;;;;;;5072645;28;20452;-81
2023/04/10 06:41:55;;;;;;;30.93;22.67;;;9.00;99.90;;;;;;5076309;28;20448;-80
2023/04/10 06:44:23;;;;;;;26.63;20.83;;;9.30;99.90;;;;;;5081248;28;20480;-82
2023/04/10 06:46:51;;;;;;;26.95;20.80;;;9.50;99.90;;;;;;5081350;28;21054;-84
2023/04/10 06:49:23;;;;;;;21.20;17.00;;;9.60;99.90;;;;;;5077544;28;20407;-82
2023/04/10 06:51:51;;;;;;;15.57;14.10;;;9.80;99.90;;;;;;5077874;28;20456;-82
2023/04/10 06:54:20;;;;;;;13.57;12.17;;;10.00;99.90;;;;;;5081476;28;20477;-82
2023/04/10 06:56:49;;;;;;;13.17;12.17;;;10.20;99.90;;;;;;5077436;28;20509;-80
2023/04/10 06:59:17;;;;;;;11.77;10.77;;;10.40;99.90;;;;;;5076624;28;21018;-81
2023/04/10 07:01:45;;;;;;;11.40;10.50;;;10.60;99.90;;;;;;5077342;28;20566;-80
2023/04/10 07:04:13;;;;;;;18.07;13.60;;;10.80;99.90;;;;;;5078554;28;20473;-82
2023/04/10 07:06:41;;;;;;;11.53;10.63;;;10.90;99.90;;;;;;5079126;28;20481;-82
2023/04/10 07:09:09;;;;;;;10.47;9.77;;;11.00;99.90;;;;;;5081938;28;20453;-82
2023/04/10 07:11:39;;;;;;;19.03;15.17;;;11.10;99.90;;;;;;5076696;28;20456;-83
2023/04/10 07:14:07;;;;;;;11.90;11.00;;;11.20;99.90;;;;;;5082117;28;20470;-83
2023/04/10 07:16:36;;;;;;;10.40;9.50;;;11.30;99.90;;;;;;5077081;28;20447;-81
2023/04/10 07:19:04;;;;;;;14.90;12.90;;;11.40;99.90;;;;;;5077278;28;20457;-82
2023/04/10 07:21:32;;;;;;;9.90;9.20;;;11.50;99.90;;;;;;5078701;28;22427;-82
2023/04/10 07:24:01;;;;;;;12.60;11.50;;;11.70;99.90;;;;;;5079310;28;20933;-80
2023/04/10 07:26:29;;;;;;;7.87;7.37;;;12.10;99.90;;;;;;5083257;28;20203;-81
2023/04/10 07:28:58;;;;;;;9.13;8.33;;;12.30;99.90;;;;;;5078329;28;20457;-80
2023/04/10 07:31:26;;;;;;;8.40;7.80;;;12.20;91.80;;;;;;5079628;28;20527;-80
2023/04/10 07:33:55;;;;;;;6.53;6.13;;;12.10;80.60;;;;;;5084397;28;20882;-82
2023/04/10 07:36:23;;;;;;;8.18;7.63;;;12.20;83.80;;;;;;5082163;28;20470;-80
2023/04/10 07:38:51;;;;;;;8.53;7.93;;;12.30;78.70;;;;;;5080083;28;20223;-81
2023/04/10 07:41:21;;;;;;;7.80;7.40;;;12.40;73.30;;;;;;5076706;28;20450;-81
2023/04/10 07:43:49;;;;;;;7.47;6.97;;;12.30;71.10;;;;;;5077178;28;20466;-81
2023/04/10 07:46:19;;;;;;;6.70;6.40;;;12.40;67.00;;;;;;5077227;28;20496;-82
2023/04/10 07:48:48;;;;;;;7.33;6.93;;;12.50;74.80;;;;;;5083675;28;20449;-82
2023/04/10 07:51:16;;;;;;;7.43;6.93;;;12.60;73.70;;;;;;5086320;28;20442;-81
2023/04/10 07:53:44;;;;;;;6.93;6.60;;;12.60;67.30;;;;;;5087823;28;20462;-82
2023/04/10 07:56:16;;;;;;;6.53;6.23;;;12.60;70.40;;;;;;5087208;28;20446;-81
2023/04/10 07:58:46;;;;;;;7.00;6.60;;;12.50;63.40;;;;;;5088113;28;20499;-82
2023/04/10 08:01:15;;;;;;;6.70;6.30;;;12.40;60.30;;;;;;5087445;28;20616;-80
2023/04/10 08:03:46;;;;;;;6.50;6.20;;;12.40;58.60;;;;;;5087795;28;21016;-80
2023/04/10 08:06:14;;;;;;;6.30;6.00;;;12.50;56.80;;;;;;5087580;28;20464;-81
2023/04/10 08:08:42;;;;;;;6.83;6.40;;;12.40;56.80;;;;;;5084150;28;20993;-82
2023/04/10 08:11:24;;;;;;;6.63;6.27;;;12.40;54.20;;;;;;5085380;28;20935;-82
2023/04/10 08:13:52;;;;;;;6.53;6.23;;;12.30;50.80;;;;;;5085913;28;20488;-82
2023/04/10 08:16:24;;;;;;;6.70;6.30;;;12.30;49.70;;;;;;5083832;28;20452;-82
2023/04/10 08:18:55;;;;;;;7.13;6.73;;;12.40;64.40;;;;;;5085579;28;20496;-81
2023/04/10 08:21:24;;;;;;;6.37;5.97;;;12.00;44.90;;;;;;5085892;28;20930;-83
2023/04/10 08:23:53;;;;;;;6.60;6.20;;;12.20;49.10;;;;;;5087204;28;20476;-82
2023/04/10 08:26:21;;;;;;;6.50;6.10;;;12.50;53.60;;;;;;5078919;28;20465;-82
2023/04/10 08:28:51;;;;;;;6.47;6.13;;;12.60;53.20;;;;;;5073922;28;20446;-81
2023/04/10 08:31:22;;;;;;;6.93;6.53;;;12.70;56.30;;;;;;5085799;28;20466;-81
2023/04/10 08:33:50;;;;;;;6.73;6.30;;;12.90;55.60;;;;;;5086439;28;20501;-80
2023/04/10 08:36:20;;;;;;;7.47;6.97;;;13.00;58.70;;;;;;5087803;28;20488;-80
2023/04/10 08:38:49;;;;;;;6.60;6.30;;;13.10;57.60;;;;;;5087540;28;20469;-79
2023/04/10 08:41:18;;;;;;;6.73;6.43;;;13.00;53.70;;;;;;5087637;28;20470;-79
2023/04/10 08:43:48;;;;;;;6.57;6.10;;;13.00;55.10;;;;;;5080685;28;20524;-80
2023/04/10 08:46:16;;;;;;;6.00;5.70;;;13.10;51.50;;;;;;5078590;28;21091;-80
2023/04/10 08:48:47;;;;;;;5.93;5.67;;;13.00;49.80;;;;;;5081406;28;20473;-80
2023/04/10 08:51:21;;;;;;;5.80;5.40;;;13.00;48.80;;;;;;5083137;28;20538;-80
2023/04/10 08:53:58;;;;;;;5.60;5.30;;;13.00;50.80;;;;;;5086493;28;20499;-81
2023/04/10 08:56:27;;;;;;;5.97;5.63;;;13.20;52.90;;;;;;5096972;28;20465;-80
2023/04/10 08:58:55;;;;;;;5.70;5.40;;;13.20;49.20;;;;;;5081378;28;20474;-79
2023/04/10 09:01:25;;;;;;;6.37;6.00;;;13.30;51.20;;;;;;5088612;28;20453;-80
2023/04/10 09:03:53;;;;;;;5.80;5.47;;;13.40;53.50;;;;;;5089216;28;20479;-80
2023/04/10 09:06:23;;;;;;;5.90;5.40;;;13.50;52.40;;;;;;5087449;28;20445;-80
2023/04/10 09:08:52;;;;;;;5.60;5.30;;;13.50;53.40;;;;;;5086160;28;21126;-81
2023/04/10 09:11:20;;;;;;;5.40;5.10;;;13.60;54.00;;;;;;5086190;28;21018;-79
2023/04/10 09:13:48;;;;;;;5.50;5.20;;;13.60;51.00;;;;;;5089040;28;20520;-82
2023/04/10 09:16:16;;;;;;;5.80;5.27;;;13.60;68.90;;;;;;5081528;28;20463;-82
2023/04/10 09:18:46;;;;;;;5.20;5.00;;;13.70;52.30;;;;;;5086420;28;20478;-82
2023/04/10 09:21:16;;;;;;;4.60;4.40;;;13.60;47.60;;;;;;5085471;28;20442;-80
2023/04/10 09:23:47;;;;;;;4.30;4.20;;;13.60;46.30;;;;;;5087176;28;21077;-81
2023/04/10 09:26:26;;;;;;;4.97;4.77;;;13.60;47.40;;;;;;5086673;28;20866;-80
2023/04/10 09:29:00;;;;;;;5.20;5.00;;;13.70;45.00;;;;;;5083452;28;20511;-81
2023/04/10 09:31:34;;;;;;;5.60;5.30;;;13.70;44.60;;;;;;5085285;28;20461;-80
2023/04/10 09:34:11;;;;;;;4.63;4.43;;;13.80;44.90;;;;;;5083426;28;20476;-80
2023/04/10 09:36:41;;;;;;;4.80;4.60;;;13.90;43.60;;;;;;5086470;28;20967;-81
2023/04/10 09:39:12;;;;;;;4.33;4.13;;;13.90;43.50;;;;;;5076655;28;20479;-81
2023/04/10 09:41:51;;;;;;;4.53;4.43;;;14.00;44.60;;;;;;5084487;28;20455;-80
2023/04/10 09:44:29;;;;;;;4.23;4.13;;;14.10;44.70;;;;;;5086994;28;20477;-79
2023/04/10 09:46:58;;;;;;;4.40;4.20;;;14.10;44.50;;;;;;5083743;28;20501;-80
2023/04/10 09:49:27;;;;;;;4.60;4.40;;;14.10;43.80;;;;;;5085096;28;20485;-78
2023/04/10 09:51:55;;;;;;;4.50;4.30;;;14.10;42.70;;;;;;5100259;28;20463;-80
2023/04/10 09:54:37;;;;;;;4.27;4.13;;;14.20;44.70;;;;;;5085712;28;20480;-79
2023/04/10 09:57:07;;;;;;;4.20;4.00;;;14.30;44.50;;;;;;5087837;28;20960;-80
2023/04/10 09:59:38;;;;;;;4.30;4.13;;;14.30;43.20;;;;;;5086019;28;20551;-80
2023/04/10 10:02:09;;;;;;;4.27;4.10;;;14.40;43.60;;;;;;5085335;28;20468;-81
2023/04/10 10:04:40;;;;;;;4.40;4.20;;;14.40;44.40;;;;;;5087104;28;20471;-81
2023/04/10 10:07:08;;;;;;;4.20;4.10;;;14.50;45.30;;;;;;5085128;28;21328;-82
2023/04/10 10:09:38;;;;;;;4.37;4.20;;;14.60;46.60;;;;;;5085268;28;20458;-82
2023/04/10 10:12:08;;;;;;;4.33;4.13;;;14.60;45.60;;;;;;5083120;28;20973;-81
2023/04/10 10:14:42;;;;;;;4.70;4.50;;;14.60;44.80;;;;;;5083444;28;20513;-80
2023/04/10 10:17:12;;;;;;;4.73;4.53;;;14.70;44.50;;;;;;5082792;28;20454;-80
2023/04/10 10:19:47;;;;;;;4.63;4.37;;;14.70;44.20;;;;;;5081378;28;20488;-81
2023/04/10 10:22:16;;;;;;;4.40;4.20;;;14.80;44.70;;;;;;5086217;28;20456;-80
2023/04/10 10:24:47;;;;;;;4.00;3.90;;;14.90;47.70;;;;;;5087475;28;20540;-81
2023/04/10 10:27:17;;;;;;;3.57;3.47;;;15.10;46.70;;;;;;5087595;28;20446;-81
2023/04/10 10:29:48;;;;;;;3.50;3.40;;;14.80;41.40;;;;;;5086785;28;20861;-80
2023/04/10 10:32:18;;;;;;;4.37;4.17;;;14.90;41.30;;;;;;5084815;28;20474;-81
2023/04/10 10:34:52;;;;;;;3.70;3.60;;;15.10;44.30;;;;;;5085638;28;21191;-81
2023/04/10 10:37:21;;;;;;;3.87;3.77;;;15.20;44.20;;;;;;5080807;28;20983;-79
2023/04/10 10:39:59;;;;;;;4.20;4.00;;;15.30;45.40;;;;;;5086281;28;20465;-83
2023/04/10 10:42:34;;;;;;;3.57;3.37;;;15.40;46.50;;;;;;5084088;28;20528;-81
2023/04/10 10:45:11;;;;;;;3.80;3.60;;;15.40;45.30;;;;;;5084988;28;20511;-81
2023/04/10 10:47:45;;;;;;;3.60;3.50;;;15.40;43.60;;;;;;5083571;28;20843;-82
2023/04/10 10:50:14;;;;;;;3.73;3.63;;;15.40;55.20;;;;;;5075633;28;20436;-81
2023/04/10 10:52:44;;;;;;;3.93;3.80;;;15.60;40.90;;;;;;5079507;28;20537;-79
2023/04/10 10:55:36;;;;;;;3.10;3.00;;;15.70;40.30;;;;;;5080563;28;20473;-81
2023/04/10 10:58:06;;;;;;;3.23;3.03;;;15.70;38.10;;;;;;5084363;28;20440;-81
2023/04/10 11:01:07;;;;;;;3.07;2.97;;;15.80;37.80;;;;;;5089328;28;20483;-81
2023/04/10 11:03:38;;;;;;;2.60;2.50;;;15.90;39.80;;;;;;5087594;28;20479;-81
2023/04/10 11:06:08;;;;;;;2.70;2.60;;;16.00;37.80;;;;;;5089548;28;20445;-82
2023/04/10 11:08:41;;;;;;;3.03;2.93;;;16.10;38.60;;;;;;5088671;28;20445;-82
2023/04/10 11:11:15;;;;;;;2.60;2.50;;;16.10;37.30;;;;;;5088569;28;20457;-80
2023/04/10 11:14:20;;;;;;;2.60;2.50;;;16.10;37.80;;;;;;5089713;28;20460;-82
2023/04/10 11:16:48;;;;;;;2.80;2.70;;;16.00;36.70;;;;;;5090854;28;20460;-80
2023/04/10 11:19:21;;;;;;;2.40;2.30;;;16.10;37.70;;;;;;5093236;28;20487;-82
2023/04/10 11:22:14;;;;;;;2.40;2.30;;;16.10;37.70;;;;;;5092377;28;20469;-81
2023/04/10 11:25:09;;;;;;;2.53;2.33;;;16.00;33.60;;;;;;5094075;28;20499;-81
2023/04/10 11:27:48;;;;;;;2.23;2.13;;;16.00;32.70;;;;;;5082833;28;20982;-80
2023/04/10 11:30:27;;;;;;;2.33;2.23;;;16.00;33.20;;;;;;5089825;28;20444;-81
2023/04/10 11:32:56;;;;;;;2.40;2.30;;;16.10;32.20;;;;;;5090898;28;20463;-82
2023/04/10 11:35:25;;;;;;;2.30;2.20;;;16.20;34.00;;;;;;5092795;28;20496;-82
2023/04/10 11:38:08;;;;;;;2.63;2.53;;;16.10;33.70;;;;;;5091642;28;20510;-83
2023/04/10 11:40:53;;;;;;;2.67;2.57;;;16.10;30.90;;;;;;5090785;28;20489;-81
2023/04/10 11:43:23;;;;;;;2.40;2.30;;;16.10;32.70;;;;;;5076198;28;20559;-81
2023/04/10 11:45:58;;;;;;;2.70;2.60;;;16.20;34.40;;;;;;5084242;28;20951;-83
2023/04/10 11:48:28;;;;;;;2.33;2.23;;;16.20;32.20;;;;;;5082926;28;20455;-81
2023/04/10 11:50:56;;;;;;;2.80;2.70;;;16.20;31.30;;;;;;5083016;28;20475;-85
2023/04/10 11:53:25;;;;;;;1.80;1.80;;;16.30;32.50;;;;;;5083203;28;20484;-82
2023/04/10 11:55:53;;;;;;;3.03;2.60;;;16.30;28.90;;;;;;5076341;28;20462;-82
2023/04/10 11:58:25;;;;;;;2.00;1.90;;;16.30;30.90;;;;;;5078968;28;20511;-83
2023/04/10 12:01:01;;;;;;;2.00;1.90;;;16.30;34.40;;;;;;5078366;28;20500;-79
2023/04/10 12:03:37;;;;;;;2.60;2.20;;;16.40;35.80;;;;;;5083866;28;21021;-83
2023/04/10 12:06:10;;;;;;;2.30;2.20;;;16.40;33.30;;;;;;5085395;28;20888;-80
2023/04/10 12:08:39;;;;;;;2.47;2.37;;;16.50;33.10;;;;;;5079789;28;20446;-79
2023/04/10 12:11:08;;;;;;;2.37;2.27;;;16.50;32.00;;;;;;5081260;28;20529;-82
2023/04/10 12:13:38;;;;;;;1.80;1.80;;;16.50;30.20;;;;;;5078163;28;21285;-83
2023/04/10 12:16:09;;;;;;;2.60;2.50;;;16.50;29.60;;;;;;5071394;28;20569;-83
2023/04/10 12:18:38;;;;;;;2.27;2.17;;;16.60;32.20;;;;;;5076433;28;21061;-81
2023/04/10 12:21:07;;;;;;;2.30;2.20;;;16.70;33.10;;;;;;5078691;28;20475;-82
2023/04/10 12:23:38;;;;;;;1.80;1.80;;;16.70;32.40;;;;;;5079734;28;20476;-82
2023/04/10 12:26:12;;;;;;;1.92;1.83;;;16.70;31.60;;;;;;5081111;28;20485;-82
2023/04/10 12:28:43;;;;;;;1.93;1.90;;;16.70;29.60;;;;;;5070437;28;20203;-82
2023/04/10 12:31:11;;;;;;;1.90;1.90;;;16.70;30.60;;;;;;5084725;28;20946;-82
2023/04/10 12:33:39;;;;;;;1.87;1.87;;;16.80;33.00;;;;;;5083133;28;20489;-81
2023/04/10 12:36:20;;;;;;;2.00;1.90;;;16.90;35.40;;;;;;5085600;28;20508;-81
2023/04/10 12:38:49;;;;;;;1.60;1.60;;;16.90;31.10;;;;;;5086987;28;20220;-80
2023/04/10 12:41:22;;;;;;;2.10;2.00;;;16.90;30.00;;;;;;5087434;28;20519;-78
2023/04/10 12:43:53;;;;;;;1.80;1.80;;;16.90;31.30;;;;;;5085323;28;20466;-77
2023/04/10 12:46:26;;;;;;;2.10;2.00;;;16.90;31.20;;;;;;5083340;28;20451;-83
2023/04/10 12:48:55;;;;;;;2.57;2.37;;;17.00;40.90;;;;;;5083822;28;21050;-80
2023/04/10 12:51:41;;;;;;;2.00;1.90;;;17.00;31.90;;;;;;5086193;28;20443;-84
2023/04/10 12:54:10;;;;;;;1.90;1.80;;;17.00;32.50;;;;;;5086503;28;20480;-83
2023/04/10 12:56:41;;;;;;;2.00;1.90;;;16.90;30.30;;;;;;5086838;28;20451;-83
2023/04/10 12:59:11;;;;;;;1.70;1.70;;;16.70;28.40;;;;;;5087491;28;20457;-82